sensor_id;sensor_type;location;lat;lon;timestamp;P1;durP1;ratioP1;P2;durP2;ratioP2
74777;SDS011;63298;53.164;8.610;2022-10-31T00:01:08;19.45;;;10.35;;
74777;SDS011;63298;53.164;8.610;2022-10-31T00:03:39;23.65;;;10.10;;
74777;SDS011;63298;53.164;8.610;2022-10-31T00:06:04;30.30;;;10.35;;
74777;SDS011;63298;53.164;8.610;2022-10-31T00:08:30;32.05;;;11.05;;
74777;SDS011;63298;53.164;8.610;2022-10-31T00:10:55;25.35;;;10.02;;
74777;SDS011;63298;53.164;8.610;2022-10-31T00:13:20;21.52;;;10.82;;
74777;SDS011;63298;53.164;8.610;2022-10-31T00:15:46;16.48;;;10.95;;
74777;SDS011;63298;53.164;8.610;2022-10-31T00:18:11;16.70;;;9.45;;
74777;SDS011;63298;53.164;8.610;2022-10-31T00:20:37;24.52;;;10.40;;
74777;SDS011;63298;53.164;8.610;2022-10-31T00:23:03;22.77;;;10.15;;
74777;SDS011;63298;53.164;8.610;2022-10-31T00:25:34;22.95;;;9.70;;
74777;SDS011;63298;53.164;8.610;2022-10-31T00:28:03;19.30;;;9.48;;
74777;SDS011;63298;53.164;8.610;2022-10-31T00:30:29;21.63;;;11.05;;
74777;SDS011;63298;53.164;8.610;2022-10-31T00:32:55;24.48;;;10.15;;
74777;SDS011;63298;53.164;8.610;2022-10-31T00:35:20;19.92;;;9.27;;
74777;SDS011;63298;53.164;8.610;2022-10-31T00:37:46;23.50;;;9.45;;
74777;SDS011;63298;53.164;8.610;2022-10-31T00:40:11;18.40;;;8.95;;
74777;SDS011;63298;53.164;8.610;2022-10-31T00:42:38;17.50;;;8.15;;
74777;SDS011;63298;53.164;8.610;2022-10-31T00:45:04;16.42;;;7.93;;
74777;SDS011;63298;53.164;8.610;2022-10-31T00:47:30;15.68;;;8.98;;
74777;SDS011;63298;53.164;8.610;2022-10-31T00:49:55;20.73;;;9.07;;
74777;SDS011;63298;53.164;8.610;2022-10-31T00:52:21;20.52;;;9.20;;
74777;SDS011;63298;53.164;8.610;2022-10-31T00:54:46;19.48;;;9.52;;
74777;SDS011;63298;53.164;8.610;2022-10-31T00:57:12;17.50;;;9.00;;
74777;SDS011;63298;53.164;8.610;2022-10-31T00:59:37;16.85;;;8.68;;
74777;SDS011;63298;53.164;8.610;2022-10-31T01:02:02;16.45;;;9.18;;
74777;SDS011;63298;53.164;8.610;2022-10-31T01:04:28;19.50;;;8.90;;
74777;SDS011;63298;53.164;8.610;2022-10-31T01:06:53;22.35;;;10.20;;
74777;SDS011;63298;53.164;8.610;2022-10-31T01:09:19;15.85;;;9.35;;
74777;SDS011;63298;53.164;8.610;2022-10-31T01:11:44;22.92;;;10.20;;
74777;SDS011;63298;53.164;8.610;2022-10-31T01:14:10;19.67;;;10.02;;
74777;SDS011;63298;53.164;8.610;2022-10-31T01:16:36;21.23;;;9.90;;
74777;SDS011;63298;53.164;8.610;2022-10-31T01:19:02;25.00;;;9.50;;
74777;SDS011;63298;53.164;8.610;2022-10-31T01:21:28;17.25;;;9.13;;
74777;SDS011;63298;53.164;8.610;2022-10-31T01:23:54;23.63;;;9.65;;
74777;SDS011;63298;53.164;8.610;2022-10-31T01:26:21;26.02;;;9.38;;
74777;SDS011;63298;53.164;8.610;2022-10-31T01:28:50;22.33;;;10.60;;
74777;SDS011;63298;53.164;8.610;2022-10-31T01:31:18;26.00;;;10.98;;
74777;SDS011;63298;53.164;8.610;2022-10-31T01:33:45;22.77;;;10.38;;
74777;SDS011;63298;53.164;8.610;2022-10-31T01:36:12;22.90;;;10.02;;
74777;SDS011;63298;53.164;8.610;2022-10-31T01:38:49;20.23;;;9.57;;
74777;SDS011;63298;53.164;8.610;2022-10-31T01:41:18;23.48;;;10.07;;
74777;SDS011;63298;53.164;8.610;2022-10-31T01:46:20;29.08;;;10.30;;
74777;SDS011;63298;53.164;8.610;2022-10-31T01:48:49;28.17;;;9.70;;
74777;SDS011;63298;53.164;8.610;2022-10-31T01:51:16;38.60;;;10.55;;
74777;SDS011;63298;53.164;8.610;2022-10-31T01:53:44;68.90;;;12.10;;
74777;SDS011;63298;53.164;8.610;2022-10-31T01:56:10;87.25;;;12.50;;
74777;SDS011;63298;53.164;8.610;2022-10-31T01:58:38;31.95;;;11.20;;
74777;SDS011;63298;53.164;8.610;2022-10-31T02:01:04;52.55;;;12.43;;
74777;SDS011;63298;53.164;8.610;2022-10-31T02:03:30;47.83;;;13.07;;
74777;SDS011;63298;53.164;8.610;2022-10-31T02:05:57;75.53;;;13.18;;
74777;SDS011;63298;53.164;8.610;2022-10-31T02:08:27;155.35;;;16.17;;
74777;SDS011;63298;53.164;8.610;2022-10-31T02:10:55;183.10;;;16.08;;
74777;SDS011;63298;53.164;8.610;2022-10-31T02:13:23;237.05;;;16.27;;
74777;SDS011;63298;53.164;8.610;2022-10-31T02:15:51;154.13;;;15.60;;
74777;SDS011;63298;53.164;8.610;2022-10-31T02:31:18;163.27;;;15.02;;
74777;SDS011;63298;53.164;8.610;2022-10-31T02:33:53;109.93;;;13.27;;
74777;SDS011;63298;53.164;8.610;2022-10-31T02:42:17;160.85;;;12.75;;
74777;SDS011;63298;53.164;8.610;2022-10-31T02:44:53;134.65;;;11.57;;
74777;SDS011;63298;53.164;8.610;2022-10-31T02:47:28;147.15;;;12.90;;
74777;SDS011;63298;53.164;8.610;2022-10-31T02:49:59;67.90;;;10.38;;
74777;SDS011;63298;53.164;8.610;2022-10-31T02:52:30;14.65;;;8.95;;
74777;SDS011;63298;53.164;8.610;2022-10-31T02:54:57;35.58;;;10.43;;
74777;SDS011;63298;53.164;8.610;2022-10-31T02:57:30;105.18;;;10.93;;
74777;SDS011;63298;53.164;8.610;2022-10-31T03:00:00;108.30;;;13.07;;
74777;SDS011;63298;53.164;8.610;2022-10-31T03:13:12;178.30;;;13.45;;
74777;SDS011;63298;53.164;8.610;2022-10-31T03:18:39;45.75;;;8.85;;
74777;SDS011;63298;53.164;8.610;2022-10-31T03:21:20;79.38;;;9.63;;
74777;SDS011;63298;53.164;8.610;2022-10-31T03:23:51;101.32;;;10.23;;
74777;SDS011;63298;53.164;8.610;2022-10-31T03:26:19;60.50;;;10.25;;
74777;SDS011;63298;53.164;8.610;2022-10-31T03:28:49;129.45;;;12.38;;
74777;SDS011;63298;53.164;8.610;2022-10-31T03:31:18;55.60;;;9.52;;
74777;SDS011;63298;53.164;8.610;2022-10-31T03:33:49;130.70;;;11.55;;
74777;SDS011;63298;53.164;8.610;2022-10-31T03:36:17;167.38;;;12.63;;
74777;SDS011;63298;53.164;8.610;2022-10-31T03:38:45;179.85;;;13.65;;
74777;SDS011;63298;53.164;8.610;2022-10-31T03:41:15;107.30;;;11.98;;
74777;SDS011;63298;53.164;8.610;2022-10-31T03:43:59;131.20;;;11.93;;
74777;SDS011;63298;53.164;8.610;2022-10-31T03:46:32;80.63;;;10.43;;
74777;SDS011;63298;53.164;8.610;2022-10-31T03:48:58;79.60;;;12.40;;
74777;SDS011;63298;53.164;8.610;2022-10-31T03:51:33;205.48;;;13.70;;
74777;SDS011;63298;53.164;8.610;2022-10-31T03:54:04;138.73;;;11.40;;
74777;SDS011;63298;53.164;8.610;2022-10-31T03:56:39;111.93;;;10.00;;
74777;SDS011;63298;53.164;8.610;2022-10-31T03:59:14;116.95;;;9.88;;
74777;SDS011;63298;53.164;8.610;2022-10-31T04:01:45;61.15;;;8.38;;
74777;SDS011;63298;53.164;8.610;2022-10-31T04:04:16;26.35;;;7.78;;
74777;SDS011;63298;53.164;8.610;2022-10-31T04:06:44;143.77;;;10.18;;
74777;SDS011;63298;53.164;8.610;2022-10-31T04:09:12;63.13;;;8.55;;
74777;SDS011;63298;53.164;8.610;2022-10-31T04:11:42;203.68;;;11.70;;
74777;SDS011;63298;53.164;8.610;2022-10-31T04:14:11;60.70;;;7.90;;
74777;SDS011;63298;53.164;8.610;2022-10-31T04:16:42;62.40;;;7.93;;
74777;SDS011;63298;53.164;8.610;2022-10-31T04:19:10;75.28;;;9.00;;
74777;SDS011;63298;53.164;8.610;2022-10-31T04:21:37;87.97;;;8.88;;
74777;SDS011;63298;53.164;8.610;2022-10-31T04:24:03;129.93;;;9.60;;
74777;SDS011;63298;53.164;8.610;2022-10-31T04:26:28;61.28;;;7.85;;
74777;SDS011;63298;53.164;8.610;2022-10-31T04:28:54;103.90;;;9.07;;
74777;SDS011;63298;53.164;8.610;2022-10-31T04:31:20;28.70;;;5.53;;
74777;SDS011;63298;53.164;8.610;2022-10-31T04:33:46;30.10;;;5.93;;
74777;SDS011;63298;53.164;8.610;2022-10-31T04:36:12;15.80;;;6.10;;
74777;SDS011;63298;53.164;8.610;2022-10-31T04:38:39;5.63;;;4.80;;
74777;SDS011;63298;53.164;8.610;2022-10-31T04:41:05;10.20;;;4.93;;
74777;SDS011;63298;53.164;8.610;2022-10-31T04:43:30;165.20;;;9.50;;
74777;SDS011;63298;53.164;8.610;2022-10-31T04:45:57;64.20;;;5.65;;
74777;SDS011;63298;53.164;8.610;2022-10-31T04:48:23;68.72;;;6.43;;
74777;SDS011;63298;53.164;8.610;2022-10-31T04:50:49;171.40;;;8.73;;
74777;SDS011;63298;53.164;8.610;2022-10-31T04:53:15;69.90;;;6.75;;
74777;SDS011;63298;53.164;8.610;2022-10-31T04:55:40;91.63;;;7.30;;
74777;SDS011;63298;53.164;8.610;2022-10-31T04:58:06;109.70;;;9.82;;
74777;SDS011;63298;53.164;8.610;2022-10-31T05:00:31;187.65;;;10.38;;
74777;SDS011;63298;53.164;8.610;2022-10-31T05:02:57;115.28;;;9.35;;
74777;SDS011;63298;53.164;8.610;2022-10-31T05:05:27;72.15;;;7.03;;
74777;SDS011;63298;53.164;8.610;2022-10-31T05:07:54;102.50;;;8.52;;
74777;SDS011;63298;53.164;8.610;2022-10-31T05:10:22;20.75;;;9.20;;
74777;SDS011;63298;53.164;8.610;2022-10-31T05:12:53;16.95;;;7.13;;
74777;SDS011;63298;53.164;8.610;2022-10-31T05:15:23;134.73;;;9.90;;
74777;SDS011;63298;53.164;8.610;2022-10-31T05:17:49;74.43;;;8.45;;
74777;SDS011;63298;53.164;8.610;2022-10-31T05:20:16;181.90;;;11.20;;
74777;SDS011;63298;53.164;8.610;2022-10-31T05:22:44;55.97;;;9.18;;
74777;SDS011;63298;53.164;8.610;2022-10-31T05:25:12;153.52;;;10.95;;
74777;SDS011;63298;53.164;8.610;2022-10-31T05:27:41;243.80;;;15.80;;
74777;SDS011;63298;53.164;8.610;2022-10-31T05:30:09;152.75;;;12.27;;
74777;SDS011;63298;53.164;8.610;2022-10-31T05:32:40;205.80;;;13.52;;
74777;SDS011;63298;53.164;8.610;2022-10-31T05:35:07;88.20;;;10.32;;
74777;SDS011;63298;53.164;8.610;2022-10-31T05:37:34;44.15;;;10.27;;
74777;SDS011;63298;53.164;8.610;2022-10-31T05:40:01;147.35;;;13.05;;
74777;SDS011;63298;53.164;8.610;2022-10-31T05:42:29;150.13;;;13.00;;
74777;SDS011;63298;53.164;8.610;2022-10-31T05:44:55;163.80;;;13.48;;
74777;SDS011;63298;53.164;8.610;2022-10-31T05:47:20;132.48;;;13.10;;
74777;SDS011;63298;53.164;8.610;2022-10-31T05:49:46;106.40;;;11.43;;
74777;SDS011;63298;53.164;8.610;2022-10-31T05:52:11;266.95;;;15.25;;
74777;SDS011;63298;53.164;8.610;2022-10-31T05:54:37;210.05;;;14.65;;
74777;SDS011;63298;53.164;8.610;2022-10-31T05:57:02;78.63;;;11.82;;
74777;SDS011;63298;53.164;8.610;2022-10-31T05:59:28;359.63;;;19.00;;
74777;SDS011;63298;53.164;8.610;2022-10-31T06:01:53;155.35;;;13.55;;
74777;SDS011;63298;53.164;8.610;2022-10-31T06:04:19;242.90;;;13.68;;
74777;SDS011;63298;53.164;8.610;2022-10-31T06:06:44;169.70;;;14.90;;
74777;SDS011;63298;53.164;8.610;2022-10-31T06:09:09;104.07;;;10.82;;
74777;SDS011;63298;53.164;8.610;2022-10-31T06:11:35;316.35;;;16.38;;
74777;SDS011;63298;53.164;8.610;2022-10-31T06:14:00;394.73;;;19.17;;
74777;SDS011;63298;53.164;8.610;2022-10-31T06:16:26;172.00;;;13.40;;
74777;SDS011;63298;53.164;8.610;2022-10-31T06:18:51;246.00;;;15.52;;
74777;SDS011;63298;53.164;8.610;2022-10-31T06:21:17;259.55;;;15.57;;
74777;SDS011;63298;53.164;8.610;2022-10-31T06:23:43;101.90;;;10.80;;
74777;SDS011;63298;53.164;8.610;2022-10-31T06:26:08;156.13;;;11.75;;
74777;SDS011;63298;53.164;8.610;2022-10-31T06:28:34;50.47;;;9.13;;
74777;SDS011;63298;53.164;8.610;2022-10-31T06:30:59;157.60;;;12.68;;
74777;SDS011;63298;53.164;8.610;2022-10-31T06:33:25;85.05;;;10.98;;
74777;SDS011;63298;53.164;8.610;2022-10-31T06:35:50;48.72;;;9.65;;
74777;SDS011;63298;53.164;8.610;2022-10-31T06:38:15;22.75;;;9.00;;
74777;SDS011;63298;53.164;8.610;2022-10-31T06:40:41;106.95;;;11.02;;
74777;SDS011;63298;53.164;8.610;2022-10-31T06:43:07;124.68;;;12.10;;
74777;SDS011;63298;53.164;8.610;2022-10-31T06:45:32;21.73;;;8.50;;
74777;SDS011;63298;53.164;8.610;2022-10-31T06:47:58;72.38;;;10.15;;
74777;SDS011;63298;53.164;8.610;2022-10-31T06:50:24;129.50;;;11.87;;
74777;SDS011;63298;53.164;8.610;2022-10-31T06:52:50;87.30;;;10.52;;
74777;SDS011;63298;53.164;8.610;2022-10-31T06:55:17;99.32;;;9.63;;
74777;SDS011;63298;53.164;8.610;2022-10-31T06:57:42;69.72;;;10.50;;
74777;SDS011;63298;53.164;8.610;2022-10-31T07:00:14;11.93;;;8.85;;
74777;SDS011;63298;53.164;8.610;2022-10-31T07:02:40;151.55;;;11.32;;
74777;SDS011;63298;53.164;8.610;2022-10-31T07:05:05;150.05;;;11.88;;
74777;SDS011;63298;53.164;8.610;2022-10-31T07:07:31;73.45;;;9.32;;
74777;SDS011;63298;53.164;8.610;2022-10-31T07:09:56;56.33;;;9.10;;
74777;SDS011;63298;53.164;8.610;2022-10-31T07:12:22;15.63;;;8.93;;
74777;SDS011;63298;53.164;8.610;2022-10-31T07:14:47;76.05;;;9.95;;
74777;SDS011;63298;53.164;8.610;2022-10-31T07:17:12;51.25;;;9.00;;
74777;SDS011;63298;53.164;8.610;2022-10-31T07:19:39;43.05;;;8.85;;
74777;SDS011;63298;53.164;8.610;2022-10-31T07:22:04;27.98;;;9.07;;
74777;SDS011;63298;53.164;8.610;2022-10-31T07:24:29;41.80;;;11.20;;
74777;SDS011;63298;53.164;8.610;2022-10-31T07:26:55;12.95;;;8.50;;
74777;SDS011;63298;53.164;8.610;2022-10-31T07:29:37;22.08;;;9.13;;
74777;SDS011;63298;53.164;8.610;2022-10-31T07:32:03;44.88;;;9.13;;
74777;SDS011;63298;53.164;8.610;2022-10-31T07:34:29;16.33;;;8.13;;
74777;SDS011;63298;53.164;8.610;2022-10-31T07:36:54;16.08;;;8.30;;
74777;SDS011;63298;53.164;8.610;2022-10-31T07:39:20;75.80;;;9.60;;
74777;SDS011;63298;53.164;8.610;2022-10-31T07:41:45;198.32;;;11.93;;
74777;SDS011;63298;53.164;8.610;2022-10-31T07:44:11;37.30;;;8.40;;
74777;SDS011;63298;53.164;8.610;2022-10-31T07:46:40;41.45;;;8.43;;
74777;SDS011;63298;53.164;8.610;2022-10-31T07:49:05;27.52;;;9.00;;
74777;SDS011;63298;53.164;8.610;2022-10-31T07:51:30;113.45;;;11.23;;
74777;SDS011;63298;53.164;8.610;2022-10-31T07:53:56;92.63;;;11.25;;
74777;SDS011;63298;53.164;8.610;2022-10-31T07:56:21;39.13;;;9.05;;
74777;SDS011;63298;53.164;8.610;2022-10-31T07:58:47;11.63;;;8.45;;
74777;SDS011;63298;53.164;8.610;2022-10-31T08:01:13;54.95;;;9.15;;
74777;SDS011;63298;53.164;8.610;2022-10-31T08:03:38;111.68;;;9.98;;
74777;SDS011;63298;53.164;8.610;2022-10-31T08:06:04;57.15;;;9.73;;
74777;SDS011;63298;53.164;8.610;2022-10-31T08:08:29;86.68;;;9.88;;
74777;SDS011;63298;53.164;8.610;2022-10-31T08:10:55;29.88;;;8.30;;
74777;SDS011;63298;53.164;8.610;2022-10-31T08:13:23;53.67;;;8.65;;
74777;SDS011;63298;53.164;8.610;2022-10-31T08:15:49;118.22;;;10.57;;
74777;SDS011;63298;53.164;8.610;2022-10-31T08:18:14;76.95;;;8.70;;
74777;SDS011;63298;53.164;8.610;2022-10-31T08:20:40;80.45;;;8.82;;
74777;SDS011;63298;53.164;8.610;2022-10-31T08:23:07;141.27;;;11.35;;
74777;SDS011;63298;53.164;8.610;2022-10-31T08:25:34;76.50;;;11.02;;
74777;SDS011;63298;53.164;8.610;2022-10-31T08:28:01;20.08;;;7.82;;
74777;SDS011;63298;53.164;8.610;2022-10-31T08:30:27;56.58;;;8.05;;
74777;SDS011;63298;53.164;8.610;2022-10-31T08:32:58;96.03;;;9.35;;
74777;SDS011;63298;53.164;8.610;2022-10-31T08:35:26;49.22;;;7.75;;
74777;SDS011;63298;53.164;8.610;2022-10-31T08:37:55;126.53;;;9.18;;
74777;SDS011;63298;53.164;8.610;2022-10-31T08:40:21;43.25;;;7.72;;
74777;SDS011;63298;53.164;8.610;2022-10-31T08:42:54;103.63;;;10.20;;
74777;SDS011;63298;53.164;8.610;2022-10-31T08:45:21;53.30;;;7.72;;
74777;SDS011;63298;53.164;8.610;2022-10-31T08:47:46;36.25;;;7.15;;
74777;SDS011;63298;53.164;8.610;2022-10-31T08:50:12;53.72;;;7.97;;
74777;SDS011;63298;53.164;8.610;2022-10-31T08:52:50;78.50;;;10.02;;
74777;SDS011;63298;53.164;8.610;2022-10-31T08:55:15;29.92;;;7.82;;
74777;SDS011;63298;53.164;8.610;2022-10-31T08:57:41;41.28;;;9.00;;
74777;SDS011;63298;53.164;8.610;2022-10-31T09:00:07;33.85;;;9.05;;
74777;SDS011;63298;53.164;8.610;2022-10-31T09:02:32;34.20;;;8.15;;
74777;SDS011;63298;53.164;8.610;2022-10-31T09:04:59;161.20;;;10.90;;
74777;SDS011;63298;53.164;8.610;2022-10-31T09:07:24;101.95;;;10.52;;
74777;SDS011;63298;53.164;8.610;2022-10-31T09:09:53;16.17;;;8.13;;
74777;SDS011;63298;53.164;8.610;2022-10-31T09:12:19;53.17;;;9.63;;
74777;SDS011;63298;53.164;8.610;2022-10-31T09:14:44;20.50;;;9.30;;
74777;SDS011;63298;53.164;8.610;2022-10-31T09:17:10;33.17;;;8.75;;
74777;SDS011;63298;53.164;8.610;2022-10-31T09:19:35;32.22;;;9.60;;
74777;SDS011;63298;53.164;8.610;2022-10-31T09:22:00;83.93;;;9.90;;
74777;SDS011;63298;53.164;8.610;2022-10-31T09:24:26;36.78;;;8.95;;
74777;SDS011;63298;53.164;8.610;2022-10-31T09:26:53;29.70;;;8.60;;
74777;SDS011;63298;53.164;8.610;2022-10-31T09:29:18;39.60;;;7.97;;
74777;SDS011;63298;53.164;8.610;2022-10-31T09:31:44;156.63;;;12.30;;
74777;SDS011;63298;53.164;8.610;2022-10-31T09:34:10;27.95;;;8.93;;
74777;SDS011;63298;53.164;8.610;2022-10-31T09:36:36;35.13;;;9.30;;
74777;SDS011;63298;53.164;8.610;2022-10-31T09:39:04;36.50;;;9.70;;
74777;SDS011;63298;53.164;8.610;2022-10-31T09:56:27;206.10;;;13.10;;
74777;SDS011;63298;53.164;8.610;2022-10-31T09:58:55;190.55;;;14.00;;
74777;SDS011;63298;53.164;8.610;2022-10-31T10:06:53;158.10;;;13.80;;
74777;SDS011;63298;53.164;8.610;2022-10-31T10:36:04;25.70;;;13.20;;
74777;SDS011;63298;53.164;8.610;2022-10-31T10:38:53;21.65;;;12.15;;
74777;SDS011;63298;53.164;8.610;2022-10-31T11:21:46;38.60;;;19.27;;
74777;SDS011;63298;53.164;8.610;2022-10-31T11:24:27;37.13;;;18.10;;
74777;SDS011;63298;53.164;8.610;2022-10-31T11:39:49;35.05;;;18.40;;
74777;SDS011;63298;53.164;8.610;2022-10-31T11:45:17;35.13;;;17.92;;
74777;SDS011;63298;53.164;8.610;2022-10-31T11:48:01;30.35;;;17.15;;
74777;SDS011;63298;53.164;8.610;2022-10-31T11:50:40;29.02;;;16.20;;
74777;SDS011;63298;53.164;8.610;2022-10-31T11:56:01;31.33;;;16.55;;
74777;SDS011;63298;53.164;8.610;2022-10-31T12:01:23;32.55;;;16.42;;
74777;SDS011;63298;53.164;8.610;2022-10-31T12:24:21;22.45;;;12.85;;
74777;SDS011;63298;53.164;8.610;2022-10-31T12:30:20;30.42;;;14.02;;
74777;SDS011;63298;53.164;8.610;2022-10-31T14:51:44;32.10;;;16.92;;
74777;SDS011;63298;53.164;8.610;2022-10-31T14:54:32;39.15;;;16.75;;
74777;SDS011;63298;53.164;8.610;2022-10-31T14:57:04;34.85;;;17.05;;
74777;SDS011;63298;53.164;8.610;2022-10-31T14:59:37;34.17;;;17.15;;
74777;SDS011;63298;53.164;8.610;2022-10-31T15:02:21;32.03;;;16.63;;
74777;SDS011;63298;53.164;8.610;2022-10-31T15:04:51;30.85;;;16.13;;
74777;SDS011;63298;53.164;8.610;2022-10-31T15:07:23;28.98;;;15.35;;
74777;SDS011;63298;53.164;8.610;2022-10-31T15:09:58;31.85;;;15.40;;
74777;SDS011;63298;53.164;8.610;2022-10-31T15:12:26;29.85;;;13.45;;
74777;SDS011;63298;53.164;8.610;2022-10-31T15:14:54;28.27;;;14.00;;
74777;SDS011;63298;53.164;8.610;2022-10-31T15:17:20;26.77;;;14.02;;
74777;SDS011;63298;53.164;8.610;2022-10-31T15:19:49;26.85;;;14.45;;
74777;SDS011;63298;53.164;8.610;2022-10-31T15:22:17;26.60;;;13.18;;
74777;SDS011;63298;53.164;8.610;2022-10-31T15:24:44;31.92;;;14.30;;
74777;SDS011;63298;53.164;8.610;2022-10-31T15:27:14;25.75;;;13.13;;
74777;SDS011;63298;53.164;8.610;2022-10-31T15:29:48;31.42;;;14.43;;
74777;SDS011;63298;53.164;8.610;2022-10-31T15:32:17;28.10;;;13.10;;
74777;SDS011;63298;53.164;8.610;2022-10-31T15:34:51;29.02;;;13.18;;
74777;SDS011;63298;53.164;8.610;2022-10-31T15:37:18;28.00;;;13.25;;
74777;SDS011;63298;53.164;8.610;2022-10-31T15:39:46;25.52;;;12.80;;
74777;SDS011;63298;53.164;8.610;2022-10-31T15:42:23;27.92;;;13.57;;
74777;SDS011;63298;53.164;8.610;2022-10-31T15:44:58;24.65;;;13.40;;
74777;SDS011;63298;53.164;8.610;2022-10-31T15:47:53;26.38;;;13.18;;
74777;SDS011;63298;53.164;8.610;2022-10-31T15:50:23;29.13;;;13.95;;
74777;SDS011;63298;53.164;8.610;2022-10-31T15:53:15;28.40;;;13.23;;
74777;SDS011;63298;53.164;8.610;2022-10-31T15:55:48;28.08;;;13.27;;
74777;SDS011;63298;53.164;8.610;2022-10-31T15:58:19;26.35;;;12.40;;
74777;SDS011;63298;53.164;8.610;2022-10-31T16:00:45;37.25;;;13.00;;
74777;SDS011;63298;53.164;8.610;2022-10-31T16:03:29;29.77;;;13.55;;
74777;SDS011;63298;53.164;8.610;2022-10-31T16:06:00;25.42;;;12.95;;
74777;SDS011;63298;53.164;8.610;2022-10-31T16:10:57;28.38;;;12.18;;
74777;SDS011;63298;53.164;8.610;2022-10-31T16:13:29;24.58;;;12.25;;
74777;SDS011;63298;53.164;8.610;2022-10-31T16:15:58;26.70;;;12.52;;
74777;SDS011;63298;53.164;8.610;2022-10-31T16:20:53;24.23;;;10.82;;
74777;SDS011;63298;53.164;8.610;2022-10-31T16:26:46;28.50;;;13.75;;
74777;SDS011;63298;53.164;8.610;2022-10-31T16:29:26;25.70;;;12.27;;
74777;SDS011;63298;53.164;8.610;2022-10-31T16:31:57;26.45;;;12.07;;
74777;SDS011;63298;53.164;8.610;2022-10-31T16:34:22;25.52;;;11.82;;
74777;SDS011;63298;53.164;8.610;2022-10-31T16:36:49;33.35;;;12.80;;
74777;SDS011;63298;53.164;8.610;2022-10-31T16:39:15;26.30;;;12.40;;
74777;SDS011;63298;53.164;8.610;2022-10-31T16:41:41;31.08;;;11.75;;
74777;SDS011;63298;53.164;8.610;2022-10-31T16:44:19;21.45;;;11.25;;
74777;SDS011;63298;53.164;8.610;2022-10-31T16:46:49;24.67;;;11.93;;
74777;SDS011;63298;53.164;8.610;2022-10-31T16:49:33;24.98;;;11.57;;
74777;SDS011;63298;53.164;8.610;2022-10-31T16:51:58;29.73;;;12.57;;
74777;SDS011;63298;53.164;8.610;2022-10-31T16:54:24;23.27;;;11.05;;
74777;SDS011;63298;53.164;8.610;2022-10-31T16:56:49;22.42;;;11.50;;
74777;SDS011;63298;53.164;8.610;2022-10-31T16:59:15;28.75;;;11.80;;
74777;SDS011;63298;53.164;8.610;2022-10-31T17:01:40;29.60;;;12.52;;
74777;SDS011;63298;53.164;8.610;2022-10-31T17:04:11;26.48;;;12.23;;
74777;SDS011;63298;53.164;8.610;2022-10-31T17:06:39;25.50;;;12.07;;
74777;SDS011;63298;53.164;8.610;2022-10-31T17:09:04;24.33;;;12.07;;
74777;SDS011;63298;53.164;8.610;2022-10-31T17:11:29;27.45;;;11.68;;
74777;SDS011;63298;53.164;8.610;2022-10-31T17:13:55;26.98;;;12.02;;
74777;SDS011;63298;53.164;8.610;2022-10-31T17:16:21;24.10;;;11.73;;
74777;SDS011;63298;53.164;8.610;2022-10-31T17:18:46;27.38;;;11.80;;
74777;SDS011;63298;53.164;8.610;2022-10-31T17:21:18;25.38;;;11.57;;
74777;SDS011;63298;53.164;8.610;2022-10-31T17:23:47;31.77;;;13.30;;
74777;SDS011;63298;53.164;8.610;2022-10-31T17:26:13;25.27;;;10.90;;
74777;SDS011;63298;53.164;8.610;2022-10-31T17:28:38;33.83;;;12.98;;
74777;SDS011;63298;53.164;8.610;2022-10-31T17:31:04;22.05;;;10.63;;
74777;SDS011;63298;53.164;8.610;2022-10-31T17:33:30;23.70;;;11.77;;
74777;SDS011;63298;53.164;8.610;2022-10-31T17:35:55;28.70;;;11.57;;
74777;SDS011;63298;53.164;8.610;2022-10-31T17:38:21;25.45;;;12.32;;
74777;SDS011;63298;53.164;8.610;2022-10-31T17:40:47;20.88;;;10.80;;
74777;SDS011;63298;53.164;8.610;2022-10-31T17:43:12;26.67;;;11.68;;
74777;SDS011;63298;53.164;8.610;2022-10-31T17:45:39;30.40;;;11.80;;
74777;SDS011;63298;53.164;8.610;2022-10-31T17:48:05;25.60;;;11.13;;
74777;SDS011;63298;53.164;8.610;2022-10-31T17:50:32;26.52;;;12.45;;
74777;SDS011;63298;53.164;8.610;2022-10-31T17:52:57;22.83;;;11.25;;
74777;SDS011;63298;53.164;8.610;2022-10-31T17:55:23;29.33;;;10.75;;
74777;SDS011;63298;53.164;8.610;2022-10-31T17:57:49;21.95;;;10.15;;
74777;SDS011;63298;53.164;8.610;2022-10-31T18:00:15;23.48;;;10.93;;
74777;SDS011;63298;53.164;8.610;2022-10-31T18:02:42;23.50;;;10.27;;
74777;SDS011;63298;53.164;8.610;2022-10-31T18:05:08;21.00;;;10.05;;
74777;SDS011;63298;53.164;8.610;2022-10-31T18:07:34;22.77;;;11.05;;
74777;SDS011;63298;53.164;8.610;2022-10-31T18:10:00;23.50;;;10.32;;
74777;SDS011;63298;53.164;8.610;2022-10-31T18:12:26;19.42;;;9.93;;
74777;SDS011;63298;53.164;8.610;2022-10-31T18:18:23;19.65;;;8.98;;
74777;SDS011;63298;53.164;8.610;2022-10-31T18:24:52;16.27;;;8.57;;
74777;SDS011;63298;53.164;8.610;2022-10-31T18:27:17;19.30;;;8.85;;
74777;SDS011;63298;53.164;8.610;2022-10-31T18:29:43;16.85;;;8.70;;
74777;SDS011;63298;53.164;8.610;2022-10-31T18:32:08;16.77;;;8.50;;
74777;SDS011;63298;53.164;8.610;2022-10-31T18:34:34;15.50;;;7.72;;
74777;SDS011;63298;53.164;8.610;2022-10-31T18:36:59;16.52;;;8.18;;
74777;SDS011;63298;53.164;8.610;2022-10-31T18:39:24;21.17;;;8.73;;
74777;SDS011;63298;53.164;8.610;2022-10-31T18:41:50;17.17;;;7.60;;
74777;SDS011;63298;53.164;8.610;2022-10-31T18:44:15;21.50;;;9.02;;
74777;SDS011;63298;53.164;8.610;2022-10-31T18:46:41;18.02;;;8.02;;
74777;SDS011;63298;53.164;8.610;2022-10-31T18:49:07;18.42;;;8.65;;
74777;SDS011;63298;53.164;8.610;2022-10-31T18:51:33;15.95;;;7.60;;
74777;SDS011;63298;53.164;8.610;2022-10-31T18:53:59;16.38;;;8.02;;
74777;SDS011;63298;53.164;8.610;2022-10-31T18:56:25;14.70;;;7.93;;
74777;SDS011;63298;53.164;8.610;2022-10-31T18:58:52;17.58;;;7.55;;
74777;SDS011;63298;53.164;8.610;2022-10-31T19:01:21;14.88;;;8.05;;
74777;SDS011;63298;53.164;8.610;2022-10-31T19:03:51;19.17;;;8.13;;
74777;SDS011;63298;53.164;8.610;2022-10-31T19:06:21;14.98;;;7.78;;
74777;SDS011;63298;53.164;8.610;2022-10-31T19:08:47;17.38;;;7.88;;
74777;SDS011;63298;53.164;8.610;2022-10-31T19:11:13;20.70;;;7.72;;
74777;SDS011;63298;53.164;8.610;2022-10-31T19:13:40;17.63;;;7.63;;
74777;SDS011;63298;53.164;8.610;2022-10-31T19:16:07;14.45;;;7.70;;
74777;SDS011;63298;53.164;8.610;2022-10-31T19:18:38;15.27;;;7.88;;
74777;SDS011;63298;53.164;8.610;2022-10-31T19:21:09;13.68;;;7.65;;
74777;SDS011;63298;53.164;8.610;2022-10-31T19:23:36;12.70;;;6.50;;
74777;SDS011;63298;53.164;8.610;2022-10-31T19:26:02;18.38;;;6.38;;
74777;SDS011;63298;53.164;8.610;2022-10-31T19:28:29;13.82;;;6.20;;
74777;SDS011;63298;53.164;8.610;2022-10-31T19:30:55;16.40;;;6.60;;
74777;SDS011;63298;53.164;8.610;2022-10-31T19:33:21;10.30;;;6.32;;
74777;SDS011;63298;53.164;8.610;2022-10-31T19:35:53;11.27;;;6.50;;
74777;SDS011;63298;53.164;8.610;2022-10-31T19:38:56;16.92;;;7.07;;
74777;SDS011;63298;53.164;8.610;2022-10-31T19:41:23;15.63;;;7.28;;
74777;SDS011;63298;53.164;8.610;2022-10-31T19:43:51;13.82;;;6.53;;
74777;SDS011;63298;53.164;8.610;2022-10-31T19:46:17;18.63;;;6.15;;
74777;SDS011;63298;53.164;8.610;2022-10-31T19:48:44;11.27;;;5.95;;
74777;SDS011;63298;53.164;8.610;2022-10-31T19:51:10;11.90;;;5.93;;